Terminal Aerodrome Forecast
Issued by NWS

Home | Current Version | Previous Version | Text Only | Print | Product List | Glossary On
Versions: 1 2 3 4 5 6 7 8 9 10 11 12 13 14 15 16 17 18 19 20 21 22 23 24 25 26
000
FTUS45 KGJT 281135
TAFTEX
TAF
KTEX 281135Z 2812/2912 13003KT P6SM VCSH BKN050
     FM281700 26007KT P6SM SCT100 BKN200
     FM290300 13003KT P6SM SCT100 BKN150=

USA.gov is the U.S. government's official web portal to all federal, state and local government web resources and services.